Time;durP1;ratioP1;P1;durP2;ratioP2;P2;SDS_P1;SDS_P2;PMS_P1;PMS_P2;Temp;Humidity;BMP_temperature;BMP_pressure;BME280_temperature;BME280_humidity;BME280_pressure;Samples;Min_cycle;Max_cycle;Signal;HPM_P1;HPM_P2
2023/03/24 00:02:05;;;;;;;12.43;4.28;;;;;;;;;;4999771;28;20073;-79
2023/03/24 00:04:32;;;;;;;12.25;4.05;;;;;;;;;;4999034;28;20058;-78
2023/03/24 00:07:00;;;;;;;10.93;4.00;;;;;;;;;;4996464;28;20054;-77
2023/03/24 00:09:28;;;;;;;11.02;4.22;;;;;;;;;;4995413;28;20113;-79
2023/03/24 00:11:54;;;;;;;11.50;4.32;;;;;;;;;;4997684;28;20046;-78
2023/03/24 00:14:22;;;;;;;11.73;3.92;;;;;;;;;;4996410;28;20109;-79
2023/03/24 00:16:49;;;;;;;11.90;4.00;;;;;;;;;;4996765;28;20133;-79
2023/03/24 00:19:15;;;;;;;10.15;3.75;;;;;;;;;;4997078;28;20085;-79
2023/03/24 00:21:41;;;;;;;11.32;4.00;;;;;;;;;;4996814;28;20145;-80
2023/03/24 00:24:08;;;;;;;10.63;4.60;;;;;;;;;;4996710;28;20042;-79
2023/03/24 00:26:36;;;;;;;10.80;4.10;;;;;;;;;;4998159;28;20046;-79
2023/03/24 00:29:03;;;;;;;9.77;4.03;;;;;;;;;;4998409;28;20054;-78
2023/03/24 00:31:29;;;;;;;13.60;4.47;;;;;;;;;;4998818;28;20054;-78
2023/03/24 00:33:56;;;;;;;9.70;4.50;;;;;;;;;;4997481;28;20034;-78
2023/03/24 00:36:24;;;;;;;13.40;4.55;;;;;;;;;;4995963;28;20058;-78
2023/03/24 00:38:51;;;;;;;10.05;3.97;;;;;;;;;;4999497;28;20050;-79
2023/03/24 00:41:18;;;;;;;11.35;4.03;;;;;;;;;;5000170;28;20084;-79
2023/03/24 00:43:45;;;;;;;8.25;3.47;;;;;;;;;;5000750;28;20050;-80
2023/03/24 00:46:27;;;;;;;8.98;3.60;;;;;;;;;;5000929;28;20054;-79
2023/03/24 00:49:04;;;;;;;10.27;4.00;;;;;;;;;;4998621;28;20061;-79
2023/03/24 00:51:35;;;;;;;9.57;3.97;;;;;;;;;;4998471;28;20068;-78
2023/03/24 00:54:01;;;;;;;;;;;;;;;;;;4998358;28;20049;-79
2023/03/24 00:56:29;;;;;;;7.97;3.65;;;;;;;;;;4999910;28;19922;-79
2023/03/24 00:58:56;;;;;;;13.38;4.63;;;;;;;;;;5000135;28;20105;-79
2023/03/24 01:01:24;;;;;;;9.98;4.18;;;;;;;;;;4997757;28;20137;-78
2023/03/24 01:03:50;;;;;;;9.95;4.20;;;;;;;;;;5000114;28;20121;-77
2023/03/24 01:06:17;;;;;;;10.38;4.10;;;;;;;;;;5002441;28;20054;-79
2023/03/24 01:08:44;;;;;;;11.30;4.38;;;;;;;;;;5009332;28;20131;-78
2023/03/24 01:11:11;;;;;;;11.70;4.05;;;;;;;;;;5006223;28;20126;-79
2023/03/24 01:13:39;;;;;;;9.90;4.18;;;;;;;;;;5005692;28;20059;-78
2023/03/24 01:16:06;;;;;;;7.40;3.88;;;;;;;;;;5000384;28;20447;-77
2023/03/24 01:18:33;;;;;;;11.77;3.72;;;;;;;;;;4997978;28;20046;-77
2023/03/24 01:21:00;;;;;;;8.68;4.20;;;;;;;;;;4994342;28;20049;-78
2023/03/24 01:23:26;;;;;;;10.68;4.35;;;;;;;;;;4999354;28;20053;-78
2023/03/24 01:25:53;;;;;;;10.85;4.20;;;;;;;;;;4998292;28;20113;-78
2023/03/24 01:28:22;;;;;;;9.27;3.95;;;;;;;;;;5001268;28;20057;-79
2023/03/24 01:30:48;;;;;;;8.23;3.33;;;;;;;;;;5001328;28;20050;-79
2023/03/24 01:33:14;;;;;;;12.57;3.95;;;;;;;;;;5000699;28;20047;-79
2023/03/24 01:35:40;;;;;;;7.53;3.65;;;;;;;;;;4998088;28;20130;-79
2023/03/24 01:38:07;;;;;;;7.80;3.80;;;;;;;;;;5002878;28;20077;-79
2023/03/24 01:40:35;;;;;;;10.90;4.05;;;;;;;;;;5004586;28;20484;-79
2023/03/24 01:43:01;;;;;;;7.93;4.03;;;;;;;;;;5004455;28;20067;-78
2023/03/24 01:45:40;;;;;;;8.85;4.05;;;;;;;;;;5005088;28;20097;-79
2023/03/24 01:48:20;;;;;;;8.75;3.65;;;;;;;;;;5005709;28;20566;-78
2023/03/24 01:50:50;;;;;;;9.95;4.00;;;;;;;;;;5005171;28;20054;-78
2023/03/24 01:53:17;;;;;;;9.68;3.92;;;;;;;;;;5005219;28;20046;-78
2023/03/24 01:55:45;;;;;;;8.95;3.90;;;;;;;;;;5007260;28;20396;-79
2023/03/24 01:58:11;;;;;;;10.25;4.35;;;;;;;;;;5004401;28;20083;-79
2023/03/24 02:00:40;;;;;;;11.27;3.92;;;;;;;;;;5002789;28;20595;-78
2023/03/24 02:03:13;;;;;;;8.70;4.45;;;;;;;;;;5002983;28;20046;-79
2023/03/24 02:05:40;;;;;;;8.23;3.95;;;;;;;;;;5003182;28;20057;-78
2023/03/24 02:08:20;;;;;;;8.15;3.55;;;;;;;;;;5005342;28;20042;-78
2023/03/24 02:10:46;;;;;;;7.53;3.95;;;;;;;;;;5005939;28;20046;-78
2023/03/24 02:13:12;;;;;;;7.75;3.95;;;;;;;;;;5005591;28;20069;-79
2023/03/24 02:15:43;;;;;;;7.88;3.90;;;;;;;;;;5005489;28;20115;-78
2023/03/24 02:18:24;;;;;;;8.10;3.60;;;;;;;;;;5006805;28;20051;-79
2023/03/24 02:20:53;;;;;;;10.23;4.25;;;;;;;;;;4987889;28;20101;-79
2023/03/24 02:23:19;;;;;;;9.98;4.38;;;;;;;;;;4987237;28;20402;-79
2023/03/24 02:26:05;;;;;;;8.80;4.35;;;;;;;;;;4985225;28;20047;-78
2023/03/24 02:28:40;;;;;;;8.50;4.43;;;;;;;;;;4985809;28;20057;-78
2023/03/24 02:31:14;;;;;;;9.30;3.83;;;;;;;;;;5003314;28;20053;-79
2023/03/24 02:33:56;;;;;;;9.57;4.40;;;;;;;;;;5001654;28;20046;-79
2023/03/24 02:36:22;;;;;;;;;;;;;;;;;;5007581;28;20057;-79
2023/03/24 02:39:08;;;;;;;7.55;4.28;;;;;;;;;;4995759;28;19921;-79
2023/03/24 02:41:52;;;;;;;8.93;4.45;;;;;;;;;;5004990;28;20073;-78
2023/03/24 02:44:37;;;;;;;11.68;4.75;;;;;;;;;;5015228;28;20070;-78
2023/03/24 02:47:15;;;;;;;6.93;3.95;;;;;;;;;;5003690;28;20078;-79
2023/03/24 02:49:44;;;;;;;8.75;4.03;;;;;;;;;;5002525;28;20428;-79
2023/03/24 02:52:17;;;;;;;8.40;4.40;;;;;;;;;;5006207;28;20046;-79
2023/03/24 02:54:47;;;;;;;7.40;3.63;;;;;;;;;;5003100;28;20046;-79
2023/03/24 02:57:19;;;;;;;8.38;4.13;;;;;;;;;;5004332;28;20046;-81
2023/03/24 02:59:52;;;;;;;7.88;4.03;;;;;;;;;;5002365;28;20049;-78
2023/03/24 03:02:22;;;;;;;8.10;4.03;;;;;;;;;;5000412;28;20500;-79
2023/03/24 03:04:54;;;;;;;7.63;4.40;;;;;;;;;;5000849;28;20050;-79
2023/03/24 03:07:25;;;;;;;7.82;4.40;;;;;;;;;;5002444;28;20042;-79
2023/03/24 03:10:02;;;;;;;7.80;4.28;;;;;;;;;;5003195;28;20042;-77
2023/03/24 03:12:31;;;;;;;7.05;3.97;;;;;;;;;;5003738;28;20408;-79
2023/03/24 03:15:02;;;;;;;8.05;4.20;;;;;;;;;;5004570;28;20058;-79
2023/03/24 03:17:32;;;;;;;8.95;4.43;;;;;;;;;;5004488;28;20057;-79
2023/03/24 03:20:07;;;;;;;9.20;4.43;;;;;;;;;;5006403;28;20051;-79
2023/03/24 03:22:37;;;;;;;8.70;3.85;;;;;;;;;;5020537;28;20080;-78
2023/03/24 03:25:03;;;;;;;8.37;4.20;;;;;;;;;;5015672;28;20062;-78
2023/03/24 03:27:37;;;;;;;9.05;4.18;;;;;;;;;;5007949;28;20045;-79
2023/03/24 03:30:07;;;;;;;7.38;4.30;;;;;;;;;;5006435;28;20050;-79
2023/03/24 03:32:35;;;;;;;7.57;4.47;;;;;;;;;;5004264;28;20046;-78
2023/03/24 03:35:05;;;;;;;7.15;3.80;;;;;;;;;;5004941;28;20125;-78
2023/03/24 03:37:42;;;;;;;7.05;3.83;;;;;;;;;;5003329;28;20524;-78
2023/03/24 03:40:20;;;;;;;6.60;3.58;;;;;;;;;;5003857;28;20046;-78
2023/03/24 03:42:46;;;;;;;6.47;3.42;;;;;;;;;;5004481;28;20366;-78
2023/03/24 03:45:13;;;;;;;6.72;3.53;;;;;;;;;;5003434;28;20070;-78
2023/03/24 03:47:39;;;;;;;7.05;3.80;;;;;;;;;;5003376;28;20047;-79
2023/03/24 03:50:07;;;;;;;8.38;4.47;;;;;;;;;;5006133;28;20053;-79
2023/03/24 03:52:34;;;;;;;6.57;3.83;;;;;;;;;;5006469;28;20042;-79
2023/03/24 03:55:01;;;;;;;5.85;3.45;;;;;;;;;;5005499;28;20121;-79
2023/03/24 03:57:27;;;;;;;6.78;3.88;;;;;;;;;;5006624;28;20496;-78
2023/03/24 03:59:53;;;;;;;7.78;3.97;;;;;;;;;;5003711;28;20089;-78
2023/03/24 04:02:42;;;;;;;8.38;4.00;;;;;;;;;;5005900;28;20046;-78
2023/03/24 04:05:09;;;;;;;6.72;3.75;;;;;;;;;;5000473;28;20105;-78
2023/03/24 04:07:56;;;;;;;7.32;3.70;;;;;;;;;;4998908;28;20097;-78
2023/03/24 04:10:28;;;;;;;7.80;3.15;;;;;;;;;;4998531;28;20061;-79
2023/03/24 04:12:57;;;;;;;7.05;3.45;;;;;;;;;;4997936;28;20046;-78
2023/03/24 04:15:26;;;;;;;6.15;2.90;;;;;;;;;;4997834;28;20058;-79
2023/03/24 04:18:02;;;;;;;4.95;2.05;;;;;;;;;;4997987;28;20046;-78
2023/03/24 04:20:45;;;;;;;6.63;2.10;;;;;;;;;;5000168;28;20042;-79
2023/03/24 04:23:26;;;;;;;6.72;1.88;;;;;;;;;;5009809;28;20555;-79
2023/03/24 04:26:02;;;;;;;5.70;1.98;;;;;;;;;;5008263;28;20043;-78
2023/03/24 04:28:36;;;;;;;7.20;1.95;;;;;;;;;;5005960;28;20050;-79
2023/03/24 04:31:40;;;;;;;9.48;1.73;;;;;;;;;;4997464;28;20050;-78
2023/03/24 04:34:07;;;;;;;5.57;1.60;;;;;;;;;;4983829;28;20060;-78
2023/03/24 04:36:41;;;;;;;7.65;1.83;;;;;;;;;;5000643;28;20048;-79
2023/03/24 04:39:11;;;;;;;7.60;1.80;;;;;;;;;;5003213;28;20133;-81
2023/03/24 04:41:38;;;;;;;11.07;1.98;;;;;;;;;;5002620;28;20101;-79
2023/03/24 04:44:04;;;;;;;8.00;1.90;;;;;;;;;;4967716;28;20105;-79
2023/03/24 04:46:32;;;;;;;8.00;2.10;;;;;;;;;;4998651;28;20054;-78
2023/03/24 04:48:58;;;;;;;8.35;2.15;;;;;;;;;;5002215;28;20054;-78
2023/03/24 04:51:27;;;;;;;8.32;2.10;;;;;;;;;;4998256;28;20062;-78
2023/03/24 04:53:53;;;;;;;8.70;2.10;;;;;;;;;;4998556;28;20046;-78
2023/03/24 04:56:31;;;;;;;9.38;2.40;;;;;;;;;;4980638;28;20047;-78
2023/03/24 04:58:57;;;;;;;8.07;2.38;;;;;;;;;;5000584;28;20125;-78
2023/03/24 05:01:28;;;;;;;9.52;2.30;;;;;;;;;;4988416;28;20038;-79
2023/03/24 05:03:54;;;;;;;9.48;2.60;;;;;;;;;;4981286;28;20050;-79
2023/03/24 05:06:20;;;;;;;7.70;1.85;;;;;;;;;;5000800;28;20127;-78
2023/03/24 05:08:47;;;;;;;9.88;2.30;;;;;;;;;;5002272;28;20053;-79
2023/03/24 05:11:14;;;;;;;7.47;2.10;;;;;;;;;;5003272;28;20049;-78
2023/03/24 05:13:40;;;;;;;11.25;2.30;;;;;;;;;;5001078;28;20086;-77
2023/03/24 05:16:06;;;;;;;10.30;2.58;;;;;;;;;;5000458;28;20050;-79
2023/03/24 05:18:32;;;;;;;9.27;2.10;;;;;;;;;;4999927;28;20053;-77
2023/03/24 05:20:59;;;;;;;12.50;2.55;;;;;;;;;;4998501;28;20061;-79
2023/03/24 05:23:25;;;;;;;13.55;2.85;;;;;;;;;;5002059;28;20049;-79
2023/03/24 05:25:51;;;;;;;13.23;2.63;;;;;;;;;;5000445;28;20042;-78
2023/03/24 05:28:17;;;;;;;10.25;2.35;;;;;;;;;;5002023;28;20042;-79
2023/03/24 05:30:43;;;;;;;12.20;2.15;;;;;;;;;;5001330;28;20058;-79
2023/03/24 05:33:09;;;;;;;11.07;2.42;;;;;;;;;;4999973;28;20107;-78
2023/03/24 05:35:35;;;;;;;14.80;2.53;;;;;;;;;;4995862;28;20053;-77
2023/03/24 05:38:02;;;;;;;11.88;2.80;;;;;;;;;;5002631;28;20046;-78
2023/03/24 05:40:28;;;;;;;12.55;2.83;;;;;;;;;;5003750;28;20046;-79
2023/03/24 05:42:54;;;;;;;15.77;2.53;;;;;;;;;;5006556;28;20050;-79
2023/03/24 05:45:20;;;;;;;15.77;2.85;;;;;;;;;;4999130;28;20038;-78
2023/03/24 05:47:47;;;;;;;12.75;2.75;;;;;;;;;;4993759;28;20042;-77
2023/03/24 05:50:13;;;;;;;10.02;2.80;;;;;;;;;;4997355;28;20395;-78
2023/03/24 05:52:40;;;;;;;13.30;3.17;;;;;;;;;;4995475;28;20054;-79
2023/03/24 05:55:06;;;;;;;15.05;2.70;;;;;;;;;;4996640;28;20396;-78
2023/03/24 05:57:33;;;;;;;13.38;2.60;;;;;;;;;;5000877;28;20102;-78
2023/03/24 05:59:59;;;;;;;11.30;2.60;;;;;;;;;;4999441;28;20400;-78
2023/03/24 06:02:25;;;;;;;14.38;3.00;;;;;;;;;;5000893;28;20374;-78
2023/03/24 06:04:52;;;;;;;14.60;2.38;;;;;;;;;;4997650;28;20056;-78
2023/03/24 06:07:18;;;;;;;14.80;3.08;;;;;;;;;;4996060;28;20042;-78
2023/03/24 06:09:49;;;;;;;13.45;2.50;;;;;;;;;;4987272;28;21165;-79
2023/03/24 06:12:15;;;;;;;;;;;;;;;;;;5000180;28;20070;-79
2023/03/24 06:14:41;;;;;;;14.93;2.53;;;;;;;;;;5000424;28;19922;-78
2023/03/24 06:17:08;;;;;;;14.05;2.85;;;;;;;;;;4999821;28;20054;-78
2023/03/24 06:19:37;;;;;;;13.02;2.78;;;;;;;;;;4998743;28;20096;-78
2023/03/24 06:22:05;;;;;;;12.70;2.88;;;;;;;;;;4999356;28;20050;-79
2023/03/24 06:24:31;;;;;;;13.35;2.83;;;;;;;;;;4994360;28;20092;-79
2023/03/24 06:27:01;;;;;;;15.05;2.97;;;;;;;;;;5002188;28;20046;-79
2023/03/24 06:29:28;;;;;;;10.93;2.20;;;;;;;;;;4998285;28;20073;-78
2023/03/24 06:31:54;;;;;;;13.80;2.70;;;;;;;;;;4987779;28;20050;-77
2023/03/24 06:34:21;;;;;;;12.43;2.40;;;;;;;;;;4999475;28;20427;-79
2023/03/24 06:36:47;;;;;;;11.02;2.35;;;;;;;;;;5000784;28;20043;-79
2023/03/24 06:39:13;;;;;;;15.63;2.58;;;;;;;;;;4989842;28;20042;-79
2023/03/24 06:41:39;;;;;;;14.18;2.38;;;;;;;;;;4996649;28;20094;-78
2023/03/24 06:44:05;;;;;;;10.93;2.20;;;;;;;;;;5001467;28;20050;-78
2023/03/24 06:46:31;;;;;;;11.88;2.30;;;;;;;;;;5001397;28;20436;-79
2023/03/24 06:48:57;;;;;;;11.30;2.40;;;;;;;;;;4999748;28;20034;-78
2023/03/24 06:51:24;;;;;;;12.85;2.30;;;;;;;;;;5001860;28;20081;-77
2023/03/24 06:53:50;;;;;;;11.45;2.42;;;;;;;;;;5005552;28;20046;-78
2023/03/24 06:56:18;;;;;;;13.27;2.53;;;;;;;;;;5004301;28;20077;-79
2023/03/24 06:58:44;;;;;;;11.23;2.50;;;;;;;;;;5002346;28;20057;-78
2023/03/24 07:01:11;;;;;;;8.95;1.90;;;;;;;;;;4996405;28;20043;-79
2023/03/24 07:03:38;;;;;;;13.05;2.58;;;;;;;;;;4996880;28;20244;-79
2023/03/24 07:06:06;;;;;;;15.07;2.95;;;;;;;;;;5001575;28;20373;-79
2023/03/24 07:08:32;;;;;;;14.05;2.78;;;;;;;;;;5001377;28;20559;-78
2023/03/24 07:10:59;;;;;;;13.73;2.72;;;;;;;;;;5003554;28;20085;-79
2023/03/24 07:13:25;;;;;;;13.70;2.70;;;;;;;;;;5000461;28;20054;-78
2023/03/24 07:15:51;;;;;;;13.82;2.80;;;;;;;;;;5004333;28;20069;-78
2023/03/24 07:18:18;;;;;;;12.88;2.45;;;;;;;;;;5002073;28;20432;-78
2023/03/24 07:20:44;;;;;;;14.85;2.70;;;;;;;;;;5002234;28;20053;-79
2023/03/24 07:23:11;;;;;;;16.17;2.53;;;;;;;;;;4986731;28;20042;-78
2023/03/24 07:25:39;;;;;;;14.45;2.45;;;;;;;;;;5002537;28;20050;-78
2023/03/24 07:28:06;;;;;;;15.68;2.60;;;;;;;;;;4998812;28;20452;-78
2023/03/24 07:30:34;;;;;;;15.50;2.70;;;;;;;;;;5001917;28;20085;-78
2023/03/24 07:33:01;;;;;;;13.52;2.40;;;;;;;;;;4989700;28;20117;-80
2023/03/24 07:35:28;;;;;;;14.23;2.75;;;;;;;;;;4987817;28;20073;-77
2023/03/24 07:37:57;;;;;;;17.33;2.80;;;;;;;;;;4997216;28;20085;-78
2023/03/24 07:40:23;;;;;;;14.02;2.85;;;;;;;;;;4992916;28;20137;-79
2023/03/24 07:42:50;;;;;;;12.63;2.40;;;;;;;;;;5000535;28;20056;-79
2023/03/24 07:45:16;;;;;;;14.68;2.55;;;;;;;;;;4999266;28;21809;-79
2023/03/24 07:47:43;;;;;;;17.27;2.90;;;;;;;;;;4997498;28;20042;-78
2023/03/24 07:50:10;;;;;;;18.00;2.78;;;;;;;;;;4997180;28;20358;-78
2023/03/24 07:52:42;;;;;;;20.15;3.38;;;;;;;;;;4999128;28;20043;-79
2023/03/24 07:55:12;;;;;;;18.27;3.33;;;;;;;;;;5005930;28;20046;-79
2023/03/24 07:57:42;;;;;;;18.20;3.90;;;;;;;;;;5002592;28;20050;-78
2023/03/24 08:00:14;;;;;;;21.23;3.33;;;;;;;;;;5002738;28;20102;-77
2023/03/24 08:02:40;;;;;;;16.60;3.20;;;;;;;;;;5002434;28;20061;-78
2023/03/24 08:05:07;;;;;;;19.75;3.50;;;;;;;;;;4998111;28;20050;-78
2023/03/24 08:07:33;;;;;;;19.13;3.72;;;;;;;;;;5000140;28;20408;-77
2023/03/24 08:09:59;;;;;;;15.65;3.25;;;;;;;;;;4997318;28;20092;-79
2023/03/24 08:12:26;;;;;;;21.25;3.20;;;;;;;;;;4998809;28;20042;-79
2023/03/24 08:14:52;;;;;;;20.67;4.15;;;;;;;;;;4996856;28;20066;-79
2023/03/24 08:17:18;;;;;;;18.92;2.92;;;;;;;;;;4991278;28;20065;-79
2023/03/24 08:19:44;;;;;;;19.13;3.80;;;;;;;;;;4983506;28;20053;-78
2023/03/24 08:22:11;;;;;;;18.55;3.75;;;;;;;;;;4997036;28;20054;-78
2023/03/24 08:24:37;;;;;;;18.42;3.28;;;;;;;;;;4995091;28;20042;-78
2023/03/24 08:27:05;;;;;;;16.13;3.38;;;;;;;;;;4997662;28;20139;-78
2023/03/24 08:29:33;;;;;;;18.95;3.88;;;;;;;;;;4994176;28;20576;-77
2023/03/24 08:32:00;;;;;;;17.42;3.20;;;;;;;;;;4997369;28;20047;-77
2023/03/24 08:34:26;;;;;;;20.25;3.90;;;;;;;;;;4996263;28;20480;-78
2023/03/24 08:36:52;;;;;;;19.80;3.35;;;;;;;;;;4997897;28;20050;-77
2023/03/24 08:39:19;;;;;;;17.55;3.33;;;;;;;;;;4990069;28;20089;-77
2023/03/24 08:41:45;;;;;;;20.05;3.92;;;;;;;;;;5001424;28;20050;-79
2023/03/24 08:44:11;;;;;;;25.60;3.78;;;;;;;;;;4998441;28;20050;-78
2023/03/24 08:46:38;;;;;;;17.40;3.47;;;;;;;;;;4996645;28;20043;-78
2023/03/24 08:49:05;;;;;;;19.65;2.80;;;;;;;;;;4996525;28;20051;-77
2023/03/24 08:51:32;;;;;;;19.67;3.53;;;;;;;;;;4996471;28;20432;-77
2023/03/24 08:53:58;;;;;;;15.90;3.13;;;;;;;;;;4998018;28;20044;-77
2023/03/24 08:56:24;;;;;;;20.88;3.15;;;;;;;;;;4998217;28;20061;-77
2023/03/24 08:58:52;;;;;;;17.88;3.10;;;;;;;;;;4999789;28;20046;-77
2023/03/24 09:01:19;;;;;;;19.88;3.85;;;;;;;;;;4998503;28;20125;-77
2023/03/24 09:03:45;;;;;;;18.85;3.22;;;;;;;;;;5001269;28;20093;-83
2023/03/24 09:06:11;;;;;;;20.38;3.38;;;;;;;;;;5004162;28;20054;-79
2023/03/24 09:08:38;;;;;;;18.10;3.40;;;;;;;;;;4999038;28;20488;-78
2023/03/24 09:11:04;;;;;;;17.23;3.20;;;;;;;;;;4995574;28;20042;-77
2023/03/24 09:13:30;;;;;;;14.98;2.97;;;;;;;;;;5002558;28;20042;-78
2023/03/24 09:16:01;;;;;;;18.27;3.45;;;;;;;;;;4996540;28;20054;-78
2023/03/24 09:18:28;;;;;;;18.88;3.38;;;;;;;;;;5002092;28;20614;-82
2023/03/24 09:20:54;;;;;;;20.38;4.07;;;;;;;;;;5002687;28;20514;-78
2023/03/24 09:23:20;;;;;;;17.27;3.28;;;;;;;;;;4995834;28;20104;-77
2023/03/24 09:25:48;;;;;;;15.88;3.03;;;;;;;;;;4994735;28;20046;-77
2023/03/24 09:28:15;;;;;;;16.77;3.40;;;;;;;;;;4997019;28;20042;-78
2023/03/24 09:30:41;;;;;;;17.10;3.60;;;;;;;;;;4995525;28;20052;-77
2023/03/24 09:33:07;;;;;;;16.90;2.97;;;;;;;;;;4993131;28;20086;-78
2023/03/24 09:35:34;;;;;;;16.98;3.58;;;;;;;;;;4992596;28;20111;-77
2023/03/24 09:38:00;;;;;;;19.02;3.22;;;;;;;;;;4995415;28;20180;-77
2023/03/24 09:40:30;;;;;;;23.02;3.70;;;;;;;;;;4995023;28;20114;-76
2023/03/24 09:43:02;;;;;;;17.42;3.47;;;;;;;;;;4994184;28;20050;-78
2023/03/24 09:45:29;;;;;;;20.33;3.47;;;;;;;;;;4993191;28;20177;-81
2023/03/24 09:48:28;;;;;;;18.60;2.88;;;;;;;;;;4990020;28;20098;-77
2023/03/24 09:50:58;;;;;;;19.38;3.38;;;;;;;;;;5014666;28;20049;-77
2023/03/24 09:53:46;;;;;;;18.70;3.30;;;;;;;;;;5016768;28;20436;-80
2023/03/24 09:56:13;;;;;;;15.88;3.10;;;;;;;;;;5010796;28;20098;-78
2023/03/24 09:58:40;;;;;;;19.25;3.15;;;;;;;;;;5024035;28;20067;-79
2023/03/24 10:01:11;;;;;;;16.88;3.03;;;;;;;;;;5028303;28;20084;-79
2023/03/24 10:03:37;;;;;;;15.55;3.35;;;;;;;;;;5021168;28;20054;-78
2023/03/24 10:06:06;;;;;;;20.08;3.13;;;;;;;;;;5024364;28;20075;-78
2023/03/24 10:08:42;;;;;;;16.33;2.80;;;;;;;;;;5009565;28;20057;-79
2023/03/24 10:11:17;;;;;;;21.02;3.75;;;;;;;;;;5014227;28;20053;-80
2023/03/24 10:14:02;;;;;;;19.77;3.15;;;;;;;;;;5008194;28;20054;-77
2023/03/24 10:16:31;;;;;;;16.73;3.10;;;;;;;;;;5022715;28;20050;-77
2023/03/24 10:19:15;;;;;;;18.95;3.40;;;;;;;;;;5018381;28;20063;-78
2023/03/24 10:21:48;;;;;;;14.88;3.08;;;;;;;;;;5017769;28;20058;-79
2023/03/24 10:24:23;;;;;;;16.17;3.00;;;;;;;;;;5019452;28;20038;-81
2023/03/24 10:27:12;;;;;;;17.88;2.70;;;;;;;;;;4998239;28;20069;-79
2023/03/24 10:29:39;;;;;;;13.00;2.10;;;;;;;;;;5005084;28;20492;-80
2023/03/24 10:32:11;;;;;;;17.00;2.50;;;;;;;;;;5014805;28;20101;-81
2023/03/24 10:34:38;;;;;;;16.08;3.10;;;;;;;;;;5003500;28;20121;-79
2023/03/24 10:37:04;;;;;;;16.00;2.90;;;;;;;;;;5004571;28;20042;-79
2023/03/24 10:39:31;;;;;;;15.20;2.92;;;;;;;;;;5002446;28;20380;-80
2023/03/24 10:41:58;;;;;;;23.70;3.25;;;;;;;;;;5006692;28;20102;-79
2023/03/24 10:44:25;;;;;;;14.88;2.75;;;;;;;;;;5004019;28;20183;-79
2023/03/24 10:46:53;;;;;;;18.40;3.53;;;;;;;;;;5005336;28;20061;-77
2023/03/24 10:49:20;;;;;;;14.55;2.67;;;;;;;;;;4988713;28;20050;-79
2023/03/24 10:51:48;;;;;;;16.67;2.85;;;;;;;;;;4997671;28;20641;-79
2023/03/24 10:54:24;;;;;;;18.15;2.85;;;;;;;;;;4990027;28;20047;-79
2023/03/24 10:56:50;;;;;;;16.88;3.33;;;;;;;;;;5006129;28;20046;-79
2023/03/24 10:59:27;;;;;;;13.77;2.63;;;;;;;;;;5006140;28;20065;-79
2023/03/24 11:02:02;;;;;;;16.10;2.67;;;;;;;;;;5005317;28;20088;-79
2023/03/24 11:04:30;;;;;;;14.63;2.72;;;;;;;;;;5002253;28;20057;-78
2023/03/24 11:07:07;;;;;;;12.43;2.63;;;;;;;;;;5003169;28;20404;-78
2023/03/24 11:10:00;;;;;;;15.05;2.45;;;;;;;;;;5002272;28;20052;-79
2023/03/24 11:12:28;;;;;;;15.05;2.78;;;;;;;;;;5003415;28;20073;-78
2023/03/24 11:15:16;;;;;;;13.60;2.78;;;;;;;;;;5005779;28;20054;-78
2023/03/24 11:17:42;;;;;;;12.35;2.70;;;;;;;;;;5002931;28;20073;-78
2023/03/24 11:20:29;;;;;;;12.07;2.13;;;;;;;;;;5003937;28;20057;-79
2023/03/24 11:22:56;;;;;;;15.50;2.95;;;;;;;;;;4995536;28;20052;-78
2023/03/24 11:25:25;;;;;;;10.88;2.25;;;;;;;;;;4997460;28;20073;-78
2023/03/24 11:27:52;;;;;;;10.30;2.10;;;;;;;;;;4998876;28;20125;-77
2023/03/24 11:30:18;;;;;;;12.38;2.75;;;;;;;;;;5003666;28;20046;-79
2023/03/24 11:32:46;;;;;;;11.93;2.80;;;;;;;;;;5006309;28;20049;-80
2023/03/24 11:35:16;;;;;;;12.88;2.67;;;;;;;;;;5005398;28;20057;-77
2023/03/24 11:37:44;;;;;;;14.82;2.58;;;;;;;;;;5004770;28;20082;-78
2023/03/24 11:40:14;;;;;;;13.43;2.20;;;;;;;;;;5004900;28;20050;-79
2023/03/24 11:42:42;;;;;;;11.07;2.00;;;;;;;;;;5005791;28;20054;-78
2023/03/24 11:45:27;;;;;;;11.95;2.25;;;;;;;;;;4984269;28;20046;-80
2023/03/24 11:47:56;;;;;;;13.57;2.65;;;;;;;;;;5000861;28;20053;-78
2023/03/24 11:50:28;;;;;;;14.88;2.80;;;;;;;;;;5004276;28;20050;-78
2023/03/24 11:53:01;;;;;;;11.45;2.13;;;;;;;;;;5004504;28;20353;-78
2023/03/24 11:55:32;;;;;;;14.90;2.38;;;;;;;;;;5005621;28;20489;-80
2023/03/24 11:58:17;;;;;;;13.77;2.40;;;;;;;;;;5003473;28;20053;-78
2023/03/24 12:00:54;;;;;;;14.00;2.67;;;;;;;;;;5004039;28;20050;-78
2023/03/24 12:03:32;;;;;;;11.77;2.60;;;;;;;;;;5003778;28;20073;-79
2023/03/24 12:06:15;;;;;;;14.13;2.72;;;;;;;;;;5005582;28;20046;-79
2023/03/24 12:08:55;;;;;;;13.50;2.50;;;;;;;;;;5003986;28;20053;-80
2023/03/24 12:11:49;;;;;;;12.77;2.78;;;;;;;;;;5005734;28;20553;-79
2023/03/24 12:14:22;;;;;;;14.20;2.60;;;;;;;;;;4998329;28;20097;-77
2023/03/24 12:16:58;;;;;;;18.27;2.88;;;;;;;;;;4996988;28;20050;-78
2023/03/24 12:19:36;;;;;;;13.80;2.50;;;;;;;;;;4993956;28;20053;-77
2023/03/24 12:22:25;;;;;;;13.07;2.67;;;;;;;;;;4990123;28;20046;-77
2023/03/24 12:24:59;;;;;;;14.68;2.38;;;;;;;;;;5001312;28;20054;-77
2023/03/24 12:27:32;;;;;;;13.35;2.75;;;;;;;;;;5001885;28;20073;-77
2023/03/24 12:30:05;;;;;;;14.45;2.90;;;;;;;;;;5007451;28;20054;-79
2023/03/24 12:32:37;;;;;;;17.15;3.00;;;;;;;;;;4990804;28;20054;-79
2023/03/24 12:35:03;;;;;;;15.63;2.70;;;;;;;;;;4998648;28;20404;-78
2023/03/24 12:37:44;;;;;;;14.95;2.70;;;;;;;;;;4994769;28;20467;-78
2023/03/24 12:40:12;;;;;;;13.40;2.40;;;;;;;;;;4979473;28;20050;-78
2023/03/24 12:42:47;;;;;;;15.73;2.67;;;;;;;;;;4984806;28;20038;-78
2023/03/24 12:45:22;;;;;;;15.52;2.28;;;;;;;;;;5001558;28;20074;-78
2023/03/24 12:48:01;;;;;;;15.23;2.70;;;;;;;;;;4992847;28;20053;-77
2023/03/24 12:50:45;;;;;;;10.88;2.22;;;;;;;;;;4997533;28;20065;-78
2023/03/24 12:53:30;;;;;;;13.77;2.30;;;;;;;;;;4996545;28;20110;-77
2023/03/24 12:56:03;;;;;;;16.83;2.60;;;;;;;;;;4999146;28;20038;-77
2023/03/24 12:58:35;;;;;;;17.67;3.00;;;;;;;;;;4994381;28;20381;-78
2023/03/24 13:01:12;;;;;;;11.32;2.15;;;;;;;;;;4998926;28;20144;-77
2023/03/24 13:03:44;;;;;;;12.43;2.25;;;;;;;;;;4994953;28;20096;-78
2023/03/24 13:06:19;;;;;;;9.95;2.17;;;;;;;;;;5000125;28;20480;-78
2023/03/24 13:08:52;;;;;;;14.55;2.35;;;;;;;;;;5000089;28;20049;-78
2023/03/24 13:11:20;;;;;;;12.75;2.30;;;;;;;;;;5002124;28;20065;-78
2023/03/24 13:13:48;;;;;;;12.85;2.17;;;;;;;;;;5001359;28;20088;-78
2023/03/24 13:16:16;;;;;;;11.27;2.33;;;;;;;;;;4999423;28;20078;-78
2023/03/24 13:19:02;;;;;;;11.50;2.38;;;;;;;;;;5003763;28;20082;-78
2023/03/24 13:21:30;;;;;;;12.93;2.40;;;;;;;;;;4999955;28;20056;-77
2023/03/24 13:23:56;;;;;;;15.20;2.83;;;;;;;;;;4999172;28;20400;-78
2023/03/24 13:26:23;;;;;;;12.57;2.70;;;;;;;;;;4974695;28;20051;-79
2023/03/24 13:29:00;;;;;;;12.70;2.25;;;;;;;;;;4983177;28;20039;-78
2023/03/24 13:31:28;;;;;;;14.63;2.85;;;;;;;;;;4984205;28;20043;-78
2023/03/24 13:33:55;;;;;;;15.40;2.65;;;;;;;;;;4988225;28;20047;-79
2023/03/24 13:36:34;;;;;;;11.73;2.40;;;;;;;;;;4990107;28;20038;-78
2023/03/24 13:39:10;;;;;;;15.77;2.40;;;;;;;;;;5000785;28;20042;-77
2023/03/24 13:41:38;;;;;;;13.30;2.70;;;;;;;;;;5007215;28;20046;-78
2023/03/24 13:44:09;;;;;;;13.35;2.92;;;;;;;;;;5004475;28;20046;-78
2023/03/24 13:46:36;;;;;;;15.20;2.85;;;;;;;;;;4995299;28;20042;-78
2023/03/24 13:49:04;;;;;;;13.50;2.60;;;;;;;;;;5001670;28;20042;-78
2023/03/24 13:51:36;;;;;;;15.32;2.50;;;;;;;;;;5006385;28;20046;-77
2023/03/24 13:54:12;;;;;;;15.10;2.78;;;;;;;;;;5002443;28;20127;-78
2023/03/24 13:56:45;;;;;;;12.75;2.22;;;;;;;;;;4994077;28;20085;-78
2023/03/24 13:59:11;;;;;;;14.23;2.55;;;;;;;;;;5003550;28;20076;-78
2023/03/24 14:01:39;;;;;;;12.23;2.33;;;;;;;;;;4999451;28;20050;-77
2023/03/24 14:04:20;;;;;;;13.05;2.20;;;;;;;;;;4982946;28;20047;-77
2023/03/24 14:06:47;;;;;;;11.27;2.45;;;;;;;;;;4985500;28;20126;-78
2023/03/24 14:09:27;;;;;;;12.45;2.28;;;;;;;;;;4976849;28;20064;-79
2023/03/24 14:11:56;;;;;;;16.73;2.70;;;;;;;;;;4989776;28;20046;-79
2023/03/24 14:14:23;;;;;;;16.25;2.92;;;;;;;;;;5006429;28;20046;-80
2023/03/24 14:17:02;;;;;;;17.65;2.55;;;;;;;;;;5004554;28;20050;-80
2023/03/24 14:19:32;;;;;;;13.52;2.50;;;;;;;;;;5006109;28;20054;-80
2023/03/24 14:22:03;;;;;;;15.40;2.70;;;;;;;;;;5009643;28;20112;-80
2023/03/24 14:24:31;;;;;;;16.02;3.05;;;;;;;;;;5005895;28;20073;-80
2023/03/24 14:26:58;;;;;;;14.52;2.35;;;;;;;;;;5006957;28;20050;-80
2023/03/24 14:29:33;;;;;;;14.18;2.22;;;;;;;;;;5007575;28;20058;-81
2023/03/24 14:32:01;;;;;;;13.73;2.17;;;;;;;;;;5003160;28;20035;-78
2023/03/24 14:34:28;;;;;;;13.60;2.35;;;;;;;;;;5006508;28;20074;-79
2023/03/24 14:36:59;;;;;;;11.13;2.08;;;;;;;;;;5006109;28;20050;-78
2023/03/24 14:39:42;;;;;;;12.18;2.40;;;;;;;;;;5002090;28;20408;-79
2023/03/24 14:42:27;;;;;;;10.20;2.30;;;;;;;;;;5006991;28;20111;-78
2023/03/24 14:44:55;;;;;;;12.80;3.13;;;;;;;;;;5005685;28;20050;-77
2023/03/24 14:47:25;;;;;;;14.27;2.92;;;;;;;;;;5007877;28;20077;-79
2023/03/24 14:49:52;;;;;;;11.43;3.00;;;;;;;;;;5007353;28;20054;-78
2023/03/24 14:52:24;;;;;;;11.48;2.83;;;;;;;;;;5007603;28;20104;-79